Welcome to the New NWS' Forecast!
Most changes are behind the scenes, but click here for differences you might notice.

Terminal Aerodrome Forecast (TAF)

Issued by National Weather Service (NWS)

                            
000
FTUS42 KKEY 172339 AAA
TAFMTH
TAF AMD
KMTH 172339Z 1800/1818 10008G16KT P6SM FEW020
     FM180400 07009G18KT P6SM VCSH SCT020
     FM180800 07009KT P6SM SCT025
     FM181400 08008G16KT P6SM FEW025=